createdAt,value
2022-07-27T00:01:52.042Z,64.09
2022-07-27T00:04:58.195Z,63.95
2022-07-27T00:08:04.415Z,63.85
2022-07-27T00:11:11.750Z,63.74
2022-07-27T00:14:17.906Z,63.47
2022-07-27T00:17:24.391Z,63.68
2022-07-27T00:20:31.385Z,63.74
2022-07-27T00:23:37.595Z,63.80
2022-07-27T00:26:43.970Z,63.56
2022-07-27T00:29:50.191Z,63.52
2022-07-27T00:32:57.280Z,63.45
2022-07-27T00:36:03.554Z,63.53
2022-07-27T00:39:09.999Z,63.28
2022-07-27T00:42:16.415Z,63.16
2022-07-27T00:45:22.754Z,63.39
2022-07-27T00:48:29.386Z,63.98
2022-07-27T00:51:35.906Z,64.84
2022-07-27T00:54:42.143Z,65.12
2022-07-27T00:57:59.111Z,65.16
2022-07-27T01:01:06.106Z,65.51
2022-07-27T01:04:12.350Z,65.70
2022-07-27T01:07:18.794Z,65.11
2022-07-27T01:10:25.118Z,64.73
2022-07-27T01:13:31.641Z,64.48
2022-07-27T01:16:37.903Z,64.13
2022-07-27T01:19:44.427Z,63.93
2022-07-27T01:22:50.932Z,64.10
2022-07-27T01:25:57.141Z,63.83
2022-07-27T01:29:04.155Z,63.83
2022-07-27T01:32:10.685Z,64.18
2022-07-27T01:35:16.819Z,64.01
2022-07-27T01:38:21.351Z,63.96
2022-07-27T01:41:27.563Z,63.99
2022-07-27T01:44:33.758Z,64.30
2022-07-27T01:47:39.909Z,64.04
2022-07-27T01:50:47.526Z,63.67
2022-07-27T01:53:54.158Z,63.89
2022-07-27T01:56:58.550Z,64.31
2022-07-27T02:00:05.483Z,65.15
2022-07-27T02:03:12.831Z,65.06
2022-07-27T02:06:19.119Z,64.84
2022-07-27T02:09:25.995Z,64.96
2022-07-27T02:12:38.517Z,65.48
2022-07-27T02:15:44.816Z,65.81
2022-07-27T02:18:50.972Z,65.91
2022-07-27T02:21:55.667Z,66.34
2022-07-27T02:25:01.849Z,66.58
2022-07-27T02:28:06.767Z,66.62
2022-07-27T02:31:12.907Z,66.73
2022-07-27T02:34:17.533Z,66.73
2022-07-27T02:37:23.898Z,66.75
2022-07-27T02:40:30.137Z,66.25
2022-07-27T02:43:36.384Z,66.03
2022-07-27T02:46:42.496Z,65.78
2022-07-27T02:49:46.983Z,65.79
2022-07-27T02:52:53.243Z,65.83
2022-07-27T02:55:59.707Z,65.52
2022-07-27T02:59:05.903Z,65.55
2022-07-27T03:02:10.384Z,65.44
2022-07-27T03:05:16.480Z,65.45
2022-07-27T03:08:21.039Z,65.09
2022-07-27T03:11:27.222Z,65.23
2022-07-27T03:14:31.901Z,65.45
2022-07-27T03:17:37.990Z,65.71
2022-07-27T03:20:42.478Z,65.48
2022-07-27T03:23:48.701Z,65.61
2022-07-27T03:26:54.882Z,65.52
2022-07-27T03:29:59.502Z,65.00
2022-07-27T03:33:05.782Z,65.04
2022-07-27T03:36:12.210Z,64.79
2022-07-27T03:39:18.822Z,64.72
2022-07-27T03:42:25.254Z,64.71
2022-07-27T03:45:32.709Z,65.00
2022-07-27T03:48:39.076Z,64.99
2022-07-27T03:51:45.741Z,65.23
2022-07-27T03:54:52.297Z,65.44
2022-07-27T03:57:58.731Z,65.22
2022-07-27T04:01:05.129Z,65.42
2022-07-27T04:04:11.442Z,66.10
2022-07-27T04:07:17.803Z,66.51
2022-07-27T04:10:24.252Z,67.13
2022-07-27T04:13:33.957Z,67.79
2022-07-27T04:16:42.426Z,67.59
2022-07-27T04:19:48.645Z,68.20
2022-07-27T04:22:53.154Z,68.22
2022-07-27T04:25:59.567Z,68.63
2022-07-27T04:29:06.001Z,68.54
2022-07-27T04:32:12.211Z,68.28
2022-07-27T04:35:22.588Z,67.79
2022-07-27T04:38:31.987Z,67.71
2022-07-27T04:41:36.531Z,66.92
2022-07-27T04:44:42.644Z,67.26
2022-07-27T04:47:47.235Z,66.89
2022-07-27T04:50:53.363Z,67.08
2022-07-27T04:53:58.487Z,66.62
2022-07-27T04:57:05.194Z,66.52
2022-07-27T05:00:13.897Z,65.56
2022-07-27T05:03:20.066Z,65.12
2022-07-27T05:06:26.571Z,65.22
2022-07-27T05:09:32.716Z,64.68
2022-07-27T05:12:39.296Z,65.01
2022-07-27T05:15:54.703Z,64.61
2022-07-27T05:19:01.923Z,64.31
2022-07-27T05:22:08.154Z,64.15
2022-07-27T05:25:14.962Z,64.03
2022-07-27T05:28:21.178Z,63.60
2022-07-27T05:31:27.419Z,62.87
2022-07-27T05:34:33.842Z,62.22
2022-07-27T05:37:40.138Z,61.94
2022-07-27T05:40:48.196Z,61.96
2022-07-27T05:43:55.578Z,62.02
2022-07-27T05:47:01.767Z,61.86
2022-07-27T05:50:12.968Z,61.92
2022-07-27T05:53:19.202Z,61.56
2022-07-27T05:56:25.358Z,61.62
2022-07-27T05:59:32.846Z,61.42
2022-07-27T06:02:38.876Z,61.40
2022-07-27T06:05:45.009Z,60.94
2022-07-27T06:08:51.264Z,60.62
2022-07-27T06:11:57.356Z,60.36
2022-07-27T06:15:03.826Z,60.03
2022-07-27T06:18:18.396Z,59.37
2022-07-27T06:21:28.180Z,57.62
2022-07-27T06:24:34.404Z,58.28
2022-07-27T06:27:40.669Z,59.12
2022-07-27T06:30:46.921Z,59.93
2022-07-27T06:33:53.941Z,60.78
2022-07-27T06:37:02.169Z,60.90
2022-07-27T06:40:10.051Z,60.05
2022-07-27T06:43:16.205Z,57.50
2022-07-27T06:46:22.401Z,57.38
2022-07-27T06:49:28.713Z,57.96
2022-07-27T06:52:35.322Z,58.34
2022-07-27T06:55:41.893Z,58.64
2022-07-27T06:58:48.650Z,58.63
2022-07-27T07:01:54.879Z,59.03
2022-07-27T07:05:01.097Z,60.08
2022-07-27T07:08:11.843Z,62.42
2022-07-27T07:11:18.207Z,62.39
2022-07-27T07:14:26.977Z,60.80
2022-07-27T07:17:33.196Z,57.52
2022-07-27T07:20:40.124Z,57.88
2022-07-27T07:23:46.259Z,60.30
2022-07-27T07:26:52.455Z,59.69
2022-07-27T07:29:59.248Z,59.73
2022-07-27T07:33:05.574Z,60.07
2022-07-27T07:36:13.928Z,60.34
2022-07-27T07:39:21.021Z,61.16
2022-07-27T07:42:27.331Z,63.36
2022-07-27T07:45:35.404Z,64.02
2022-07-27T07:48:43.531Z,62.28
2022-07-27T07:51:49.795Z,60.92
2022-07-27T07:54:55.992Z,60.25
2022-07-27T07:58:02.095Z,60.32
2022-07-27T08:01:08.319Z,57.90
2022-07-27T08:04:14.472Z,57.58
2022-07-27T08:07:20.655Z,58.54
2022-07-27T08:10:28.412Z,58.76
2022-07-27T08:13:34.567Z,59.45
2022-07-27T08:16:40.900Z,60.96
2022-07-27T08:19:47.142Z,60.38
2022-07-27T08:22:53.258Z,61.18
2022-07-27T08:26:04.102Z,62.16
2022-07-27T08:29:14.235Z,61.54
2022-07-27T08:32:21.442Z,59.95
2022-07-27T08:35:29.194Z,57.77
2022-07-27T08:38:35.412Z,57.93
2022-07-27T08:41:43.111Z,57.98
2022-07-27T08:44:49.659Z,59.07
2022-07-27T08:47:56.916Z,58.36
2022-07-27T08:51:03.131Z,58.15
2022-07-27T08:54:09.888Z,58.99
2022-07-27T08:57:16.228Z,59.52
2022-07-27T09:00:23.625Z,59.49
2022-07-27T09:03:29.956Z,60.56
2022-07-27T09:06:54.114Z,60.35
2022-07-27T09:10:01.123Z,59.95
2022-07-27T09:13:21.425Z,60.01
2022-07-27T09:17:14.873Z,59.97
2022-07-27T09:20:01.887Z,58.81
2022-07-27T09:23:07.974Z,59.08
2022-07-27T09:26:30.629Z,59.82
2022-07-27T09:29:39.373Z,60.09
2022-07-27T09:32:55.442Z,60.05
2022-07-27T09:36:02.167Z,59.57
2022-07-27T09:39:08.966Z,58.54
2022-07-27T09:43:03.818Z,58.33
2022-07-27T09:45:51.237Z,57.94
2022-07-27T09:48:58.492Z,58.32
2022-07-27T09:52:05.889Z,56.89
2022-07-27T09:55:13.015Z,55.98
2022-07-27T09:58:19.228Z,56.71
2022-07-27T10:01:26.522Z,56.59
2022-07-27T10:04:35.716Z,57.49
2022-07-27T10:07:42.171Z,55.94
2022-07-27T10:10:48.351Z,55.44
2022-07-27T10:13:56.510Z,55.94
2022-07-27T10:17:03.767Z,56.09
2022-07-27T10:20:13.501Z,55.50
2022-07-27T10:23:30.439Z,54.61
2022-07-27T10:26:38.899Z,54.33
2022-07-27T10:29:47.508Z,55.11
2022-07-27T10:32:53.671Z,54.31
2022-07-27T10:36:02.563Z,54.32
2022-07-27T10:39:09.747Z,54.00
2022-07-27T10:42:30.045Z,52.84
2022-07-27T10:45:52.625Z,52.47
2022-07-27T10:49:21.857Z,52.15
2022-07-27T10:52:45.125Z,53.31
2022-07-27T10:55:52.454Z,52.80
2022-07-27T10:58:58.651Z,53.17
2022-07-27T11:02:06.029Z,53.29
2022-07-27T11:05:48.431Z,52.30
2022-07-27T11:08:46.946Z,52.45
2022-07-27T11:11:56.022Z,51.26
2022-07-27T11:15:02.331Z,51.28
2022-07-27T11:18:08.651Z,52.45
2022-07-27T11:21:25.831Z,51.40
2022-07-27T11:24:35.228Z,52.36
2022-07-27T11:27:51.576Z,50.90
2022-07-27T11:30:57.871Z,51.10
2022-07-27T11:34:04.183Z,49.36
2022-07-27T11:37:19.395Z,49.69
2022-07-27T11:40:53.861Z,48.90
2022-07-27T11:43:50.222Z,50.02
2022-07-27T11:47:01.568Z,49.89
2022-07-27T11:50:14.474Z,48.95
2022-07-27T11:53:24.265Z,49.31
2022-07-27T11:56:33.615Z,49.67
2022-07-27T11:59:40.639Z,48.77
2022-07-27T12:02:53.120Z,47.66
2022-07-27T12:06:00.766Z,47.93
2022-07-27T12:09:08.167Z,47.51
2022-07-27T12:12:16.694Z,47.59
2022-07-27T12:18:49.808Z,48.59
2022-07-27T12:21:56.431Z,48.79
2022-07-27T12:25:11.296Z,49.66
2022-07-27T12:28:28.073Z,48.34
2022-07-27T12:31:34.388Z,48.33
2022-07-27T12:34:40.598Z,47.51
2022-07-27T12:37:46.823Z,47.32
2022-07-27T12:41:00.862Z,47.53
2022-07-27T12:44:12.674Z,47.61
2022-07-27T12:47:43.191Z,46.90
2022-07-27T12:50:57.959Z,45.01
2022-07-27T12:54:04.225Z,44.84
2022-07-27T12:57:10.476Z,45.55
2022-07-27T13:00:18.656Z,47.35
2022-07-27T13:03:24.864Z,46.17
2022-07-27T13:06:31.374Z,45.78
2022-07-27T13:10:03.051Z,45.68
2022-07-27T13:13:06.016Z,44.44
2022-07-27T13:16:12.276Z,45.64
2022-07-27T13:19:18.532Z,44.89
2022-07-27T13:22:24.644Z,44.85
2022-07-27T13:25:30.831Z,44.17
2022-07-27T13:28:36.912Z,44.73
2022-07-27T13:31:49.224Z,45.83
2022-07-27T13:34:58.948Z,44.66
2022-07-27T13:38:05.206Z,45.40
2022-07-27T13:41:11.451Z,44.73
2022-07-27T13:44:41.806Z,45.97
2022-07-27T13:47:44.429Z,45.84
2022-07-27T13:50:50.704Z,45.61
2022-07-27T13:53:56.897Z,45.12
2022-07-27T13:57:02.946Z,44.85
2022-07-27T14:00:11.403Z,45.06
2022-07-27T14:03:17.515Z,45.45
2022-07-27T14:06:25.758Z,44.85
2022-07-27T14:09:46.271Z,45.82
2022-07-27T14:12:58.344Z,44.73
2022-07-27T14:16:06.914Z,44.38
2022-07-27T14:19:13.778Z,44.75
2022-07-27T14:22:20.256Z,44.76
2022-07-27T14:25:26.442Z,44.78
2022-07-27T14:28:32.559Z,44.26
2022-07-27T14:31:38.878Z,44.33
2022-07-27T14:34:45.073Z,44.73
2022-07-27T14:37:51.274Z,45.35
2022-07-27T14:40:57.777Z,44.58
2022-07-27T14:44:04.754Z,44.44
2022-07-27T14:47:11.118Z,44.51
2022-07-27T14:50:17.389Z,45.08
2022-07-27T14:53:23.541Z,44.94
2022-07-27T14:56:29.755Z,45.33
2022-07-27T14:59:36.253Z,44.94
2022-07-27T15:02:42.746Z,46.12
2022-07-27T15:05:49.675Z,46.41
2022-07-27T15:08:56.970Z,47.39
2022-07-27T15:12:03.151Z,46.59
2022-07-27T15:15:11.454Z,47.05
2022-07-27T15:18:19.481Z,46.82
2022-07-27T15:21:25.862Z,46.08
2022-07-27T15:24:36.444Z,45.91
2022-07-27T15:27:44.546Z,45.91
2022-07-27T15:30:50.594Z,46.89
2022-07-27T15:33:56.775Z,48.04
2022-07-27T15:37:03.763Z,48.10
2022-07-27T15:40:29.658Z,48.58
2022-07-27T15:43:35.894Z,49.09
2022-07-27T15:46:43.137Z,47.77
2022-07-27T15:49:49.483Z,47.59
2022-07-27T15:52:55.626Z,48.33
2022-07-27T15:56:01.802Z,48.60
2022-07-27T15:59:07.886Z,48.71
2022-07-27T16:02:14.542Z,48.73
2022-07-27T16:05:20.706Z,50.02
2022-07-27T16:08:29.955Z,49.63
2022-07-27T16:11:36.231Z,49.91
2022-07-27T16:14:42.462Z,49.45
2022-07-27T16:17:48.631Z,49.22
2022-07-27T16:20:54.870Z,48.89
2022-07-27T16:24:01.475Z,48.56
2022-07-27T16:27:08.059Z,49.12
2022-07-27T16:30:20.597Z,50.34
2022-07-27T16:33:27.382Z,50.15
2022-07-27T16:36:38.607Z,50.00
2022-07-27T16:39:45.858Z,50.89
2022-07-27T16:42:52.295Z,51.65
2022-07-27T16:46:02.990Z,52.34
2022-07-27T16:49:09.341Z,53.47
2022-07-27T16:52:15.610Z,54.02
2022-07-27T16:55:22.632Z,54.26
2022-07-27T16:58:34.103Z,54.20
2022-07-27T17:01:40.502Z,53.92
2022-07-27T17:04:47.030Z,54.98
2022-07-27T17:07:54.339Z,56.74
2022-07-27T17:11:02.386Z,57.75
2022-07-27T17:14:08.909Z,57.73
2022-07-27T17:17:16.493Z,56.63
2022-07-27T17:20:34.896Z,56.58
2022-07-27T17:23:42.031Z,57.63
2022-07-27T17:26:48.190Z,58.99
2022-07-27T17:29:54.293Z,59.64
2022-07-27T17:33:00.455Z,60.24
2022-07-27T17:36:12.278Z,60.97
2022-07-27T17:39:21.982Z,61.35
2022-07-27T17:42:28.186Z,59.69
2022-07-27T17:45:34.279Z,59.35
2022-07-27T17:48:41.395Z,60.13
2022-07-27T17:51:47.621Z,61.73
2022-07-27T17:54:53.813Z,61.94
2022-07-27T17:57:59.890Z,63.35
2022-07-27T18:01:06.519Z,63.70
2022-07-27T18:04:13.062Z,62.28
2022-07-27T18:07:19.465Z,60.73
2022-07-27T18:10:25.968Z,61.07
2022-07-27T18:13:38.791Z,61.56
2022-07-27T18:16:45.938Z,61.88
2022-07-27T18:19:52.160Z,63.46
2022-07-27T18:22:58.988Z,63.91
2022-07-27T18:26:05.499Z,63.01
2022-07-27T18:29:12.005Z,62.42
2022-07-27T18:32:18.355Z,62.30
2022-07-27T18:35:24.467Z,61.43
2022-07-27T18:38:30.684Z,59.80
2022-07-27T18:41:38.511Z,60.12
2022-07-27T18:44:44.686Z,60.98
2022-07-27T18:47:50.857Z,61.58
2022-07-27T18:50:57.022Z,63.81
2022-07-27T18:54:03.990Z,64.11
2022-07-27T18:57:10.286Z,63.39
2022-07-27T19:00:17.731Z,62.73
2022-07-27T19:03:24.824Z,62.24
2022-07-27T19:06:34.186Z,62.06
2022-07-27T19:09:41.931Z,61.83
2022-07-27T19:12:48.738Z,61.65
2022-07-27T19:15:54.962Z,61.25
2022-07-27T19:19:01.729Z,61.15
2022-07-27T19:22:08.406Z,60.09
2022-07-27T19:25:16.067Z,60.58
2022-07-27T19:28:23.004Z,61.63
2022-07-27T19:31:29.812Z,63.55
2022-07-27T19:34:36.876Z,64.38
2022-07-27T19:37:43.079Z,63.89
2022-07-27T19:41:00.204Z,63.80
2022-07-27T19:44:06.880Z,63.31
2022-07-27T19:47:13.351Z,63.48
2022-07-27T19:50:19.635Z,63.28
2022-07-27T19:53:25.825Z,63.67
2022-07-27T19:56:37.092Z,63.33
2022-07-27T19:59:54.943Z,63.19
2022-07-27T20:03:03.339Z,63.32
2022-07-27T20:06:11.306Z,62.96
2022-07-27T20:09:17.766Z,62.55
2022-07-27T20:12:23.923Z,62.35
2022-07-27T20:15:30.518Z,62.17
2022-07-27T20:18:37.703Z,62.29
2022-07-27T20:21:43.811Z,62.23
2022-07-27T20:24:50.015Z,61.99
2022-07-27T20:27:56.193Z,61.90
2022-07-27T20:31:02.369Z,61.66
2022-07-27T20:34:08.711Z,61.83
2022-07-27T20:37:14.903Z,61.86
2022-07-27T20:40:21.342Z,61.75
2022-07-27T20:43:28.210Z,61.91
2022-07-27T20:46:34.723Z,61.73
2022-07-27T20:49:41.058Z,61.68
2022-07-27T20:52:48.137Z,61.89
2022-07-27T20:55:54.463Z,62.20
2022-07-27T20:59:00.624Z,62.26
2022-07-27T21:02:07.781Z,62.28
2022-07-27T21:05:14.473Z,62.36
2022-07-27T21:08:20.594Z,62.14
2022-07-27T21:11:27.243Z,62.16
2022-07-27T21:14:33.394Z,62.23
2022-07-27T21:17:39.536Z,62.68
2022-07-27T21:20:45.701Z,62.60
2022-07-27T21:24:09.623Z,62.43
2022-07-27T21:27:15.963Z,62.13
2022-07-27T21:30:27.376Z,62.05
2022-07-27T21:33:39.172Z,62.11
2022-07-27T21:36:47.022Z,62.20
2022-07-27T21:39:53.235Z,62.24
2022-07-27T21:42:59.475Z,62.39
2022-07-27T21:46:05.710Z,62.45
2022-07-27T21:49:13.497Z,62.28
2022-07-27T21:52:19.751Z,62.36
2022-07-27T21:55:26.355Z,62.34
2022-07-27T21:58:32.583Z,62.46
2022-07-27T22:01:40.150Z,62.31
2022-07-27T22:04:46.606Z,62.50
2022-07-27T22:07:53.519Z,62.11
2022-07-27T22:11:00.021Z,62.61
2022-07-27T22:14:06.326Z,62.31
2022-07-27T22:17:12.593Z,62.35
2022-07-27T22:20:18.946Z,62.53
2022-07-27T22:23:25.388Z,62.74
2022-07-27T22:26:31.651Z,62.92
2022-07-27T22:29:38.027Z,63.01
2022-07-27T22:32:44.397Z,63.17
2022-07-27T22:35:50.726Z,63.03
2022-07-27T22:38:57.105Z,62.18
2022-07-27T22:42:03.764Z,63.10
2022-07-27T22:45:11.814Z,63.13
2022-07-27T22:48:18.114Z,63.26
2022-07-27T22:51:24.436Z,63.03
2022-07-27T22:54:33.466Z,63.18
2022-07-27T22:57:39.545Z,62.85
2022-07-27T23:00:45.877Z,63.03
2022-07-27T23:03:52.554Z,63.10
2022-07-27T23:06:59.203Z,63.19
2022-07-27T23:10:05.915Z,63.18
2022-07-27T23:13:12.839Z,63.19
2022-07-27T23:16:19.610Z,62.82
2022-07-27T23:19:26.000Z,63.34
2022-07-27T23:22:32.381Z,63.23
2022-07-27T23:25:40.596Z,63.02
2022-07-27T23:28:46.874Z,63.76
2022-07-27T23:31:53.498Z,63.99
2022-07-27T23:34:59.908Z,63.73
2022-07-27T23:38:06.717Z,63.57
2022-07-27T23:41:12.977Z,63.41
2022-07-27T23:44:19.167Z,62.95
2022-07-27T23:47:25.520Z,63.27
2022-07-27T23:50:32.303Z,63.25
2022-07-27T23:53:38.589Z,62.78
2022-07-27T23:56:44.824Z,63.45
2022-07-27T23:59:51.113Z,62.80
